Time;durP1;ratioP1;P1;durP2;ratioP2;P2;SDS_P1;SDS_P2;PMS_P1;PMS_P2;Temp;Humidity;BMP_temperature;BMP_pressure;BME280_temperature;BME280_humidity;BME280_pressure;Samples;Min_cycle;Max_cycle;Signal;HPM_P1;HPM_P2
2023/10/03 00:00:31;;;;;;;17.67;11.37;;;;;;;;;;5071863;28;20160;-51
2023/10/03 00:02:58;;;;;;;20.47;11.50;;;;;;;;;;5089764;28;20179;-54
2023/10/03 00:05:28;;;;;;;16.47;10.67;;;;;;;;;;5070264;28;20176;-51
2023/10/03 00:07:55;;;;;;;16.03;10.33;;;;;;;;;;5070160;28;20190;-51
2023/10/03 00:10:22;;;;;;;19.30;11.30;;;;;;;;;;5070108;28;20191;-50
2023/10/03 00:12:49;;;;;;;16.47;10.83;;;;;;;;;;5070599;28;20243;-49
2023/10/03 00:15:16;;;;;;;15.77;9.80;;;;;;;;;;5091967;28;20414;-50
2023/10/03 00:17:42;;;;;;;17.40;10.80;;;;;;;;;;5076707;28;20168;-52
2023/10/03 00:20:11;;;;;;;17.57;10.20;;;;;;;;;;5080668;28;20225;-53
2023/10/03 00:22:38;;;;;;;16.90;10.20;;;;;;;;;;5080880;28;20179;-53
2023/10/03 00:25:04;;;;;;;16.93;10.30;;;;;;;;;;5098155;28;20236;-50
2023/10/03 00:27:32;;;;;;;20.37;11.87;;;;;;;;;;5081314;28;20168;-49
2023/10/03 00:30:00;;;;;;;15.93;10.97;;;;;;;;;;5080175;28;20183;-50
2023/10/03 00:32:26;;;;;;;18.60;10.90;;;;;;;;;;5080662;28;20219;-50
2023/10/03 00:34:52;;;;;;;19.90;11.20;;;;;;;;;;5098499;28;20351;-48
2023/10/03 00:37:18;;;;;;;18.17;10.47;;;;;;;;;;5081026;28;20193;-52
2023/10/03 00:39:44;;;;;;;20.33;11.43;;;;;;;;;;5081093;28;20229;-51
2023/10/03 00:42:11;;;;;;;16.47;10.63;;;;;;;;;;5098416;28;20172;-50
2023/10/03 00:44:40;;;;;;;20.27;12.23;;;;;;;;;;5081010;28;20164;-49
2023/10/03 00:47:07;;;;;;;19.83;11.07;;;;;;;;;;5079646;28;20176;-50
2023/10/03 00:49:33;;;;;;;17.57;10.77;;;;;;;;;;5079656;28;20551;-52
2023/10/03 00:52:06;;;;;;;18.77;11.43;;;;;;;;;;5079651;28;20176;-50
2023/10/03 00:54:32;;;;;;;17.60;10.30;;;;;;;;;;5097242;28;20156;-53
2023/10/03 00:56:58;;;;;;;17.80;11.83;;;;;;;;;;5079465;28;20165;-51
2023/10/03 00:59:25;;;;;;;20.53;11.00;;;;;;;;;;5079067;28;20164;-52
2023/10/03 01:01:57;;;;;;;17.93;10.27;;;;;;;;;;5078730;28;20176;-50
2023/10/03 01:04:29;;;;;;;20.13;10.07;;;;;;;;;;5079438;28;20172;-51
2023/10/03 01:06:55;;;;;;;18.17;10.10;;;;;;;;;;5078994;28;20289;-51
2023/10/03 01:09:25;;;;;;;15.50;9.83;;;;;;;;;;5080131;28;20170;-51
2023/10/03 01:11:53;;;;;;;17.07;10.97;;;;;;;;;;5078150;28;20172;-48
2023/10/03 01:14:21;;;;;;;13.20;9.07;;;;;;;;;;5078735;28;20192;-54
2023/10/03 01:16:48;;;;;;;19.90;9.90;;;;;;;;;;5079140;28;20559;-48
2023/10/03 01:21:45;;;;;;;19.40;10.13;;;;;;;;;;5091528;28;20188;-51
2023/10/03 01:27:06;;;;;;;16.17;9.07;;;;;;;;;;5072746;28;20187;-49
2023/10/03 01:29:32;;;;;;;15.57;9.17;;;;;;;;;;5073421;28;20168;-55
2023/10/03 01:31:59;;;;;;;15.53;9.00;;;;;;;;;;5075056;28;20426;-50
2023/10/03 01:34:25;;;;;;;13.53;9.27;;;;;;;;;;5072237;28;20409;-50
2023/10/03 01:36:52;;;;;;;15.47;9.37;;;;;;;;;;5071626;28;20173;-50
2023/10/03 01:39:20;;;;;;;17.30;10.30;;;;;;;;;;5073548;28;20169;-50
2023/10/03 01:41:46;;;;;;;14.03;9.03;;;;;;;;;;5072605;28;20532;-50
2023/10/03 01:44:12;;;;;;;19.80;10.70;;;;;;;;;;5071518;28;20242;-48
2023/10/03 01:46:38;;;;;;;12.93;8.40;;;;;;;;;;5071360;28;20280;-50
2023/10/03 01:49:04;;;;;;;17.80;10.17;;;;;;;;;;5071849;28;20184;-48
2023/10/03 01:51:31;;;;;;;13.00;8.70;;;;;;;;;;5070094;28;20179;-51
2023/10/03 01:53:57;;;;;;;14.57;9.23;;;;;;;;;;5069669;28;20584;-48
2023/10/03 01:56:24;;;;;;;14.10;8.73;;;;;;;;;;5069120;28;20238;-47
2023/10/03 01:58:51;;;;;;;16.47;9.17;;;;;;;;;;5068923;28;20639;-48
2023/10/03 02:01:17;;;;;;;13.90;8.97;;;;;;;;;;5068152;28;20327;-54
2023/10/03 02:03:45;;;;;;;13.97;8.67;;;;;;;;;;5068546;28;20187;-48
2023/10/03 02:06:11;;;;;;;13.63;9.13;;;;;;;;;;5068685;28;20627;-47
2023/10/03 02:08:37;;;;;;;13.80;8.57;;;;;;;;;;5068851;28;20268;-47
2023/10/03 02:11:05;;;;;;;17.33;9.43;;;;;;;;;;5068785;28;20169;-49
2023/10/03 02:13:32;;;;;;;16.97;9.17;;;;;;;;;;5069189;28;20219;-48
2023/10/03 02:15:58;;;;;;;14.10;8.70;;;;;;;;;;5069976;28;20180;-49
2023/10/03 02:18:24;;;;;;;14.93;8.33;;;;;;;;;;5073281;28;20259;-50
2023/10/03 02:20:51;;;;;;;12.90;8.40;;;;;;;;;;5074833;28;20173;-51
2023/10/03 02:23:19;;;;;;;14.93;9.97;;;;;;;;;;5075169;28;20272;-49
2023/10/03 02:25:45;;;;;;;10.50;7.70;;;;;;;;;;5074797;28;20176;-49
2023/10/03 02:28:14;;;;;;;18.43;8.77;;;;;;;;;;5075088;28;20218;-51
2023/10/03 02:30:40;;;;;;;12.57;8.10;;;;;;;;;;5074748;28;20463;-51
2023/10/03 02:33:17;;;;;;;13.43;8.60;;;;;;;;;;5077743;28;20239;-50
2023/10/03 02:35:43;;;;;;;16.23;10.00;;;;;;;;;;5078431;28;20175;-49
2023/10/03 02:38:13;;;;;;;15.53;9.23;;;;;;;;;;5095488;28;20168;-49
2023/10/03 02:40:40;;;;;;;18.40;9.67;;;;;;;;;;5077934;28;20164;-48
2023/10/03 02:43:06;;;;;;;12.97;8.80;;;;;;;;;;5078466;28;20206;-51
2023/10/03 02:45:32;;;;;;;13.73;7.63;;;;;;;;;;5078669;28;20262;-54
2023/10/03 02:48:03;;;;;;;16.73;8.90;;;;;;;;;;5096123;28;20168;-48
2023/10/03 02:50:33;;;;;;;11.97;7.87;;;;;;;;;;5078617;28;20175;-51
2023/10/03 02:53:03;;;;;;;13.80;8.53;;;;;;;;;;5078113;28;20203;-50
2023/10/03 02:55:29;;;;;;;15.90;8.97;;;;;;;;;;5095268;28;20224;-49
2023/10/03 02:57:55;;;;;;;14.60;8.13;;;;;;;;;;5076326;28;20248;-48
2023/10/03 03:00:22;;;;;;;16.83;9.23;;;;;;;;;;5077616;28;20213;-53
2023/10/03 03:02:49;;;;;;;14.17;9.07;;;;;;;;;;5095869;28;20176;-49
2023/10/03 03:05:16;;;;;;;15.93;8.70;;;;;;;;;;5077579;28;20176;-50
2023/10/03 03:07:46;;;;;;;12.60;8.70;;;;;;;;;;5076905;28;20171;-50
2023/10/03 03:10:21;;;;;;;14.43;8.67;;;;;;;;;;5095141;28;20160;-50
2023/10/03 03:12:47;;;;;;;12.80;8.20;;;;;;;;;;5077952;28;20206;-50
2023/10/03 03:15:23;;;;;;;12.73;7.97;;;;;;;;;;5076446;28;20203;-50
2023/10/03 03:17:50;;;;;;;12.17;7.70;;;;;;;;;;5075673;28;20302;-49
2023/10/03 03:20:21;;;;;;;12.93;8.50;;;;;;;;;;5077132;28;20168;-49
2023/10/03 03:22:53;;;;;;;12.93;7.40;;;;;;;;;;5077055;28;20168;-52
2023/10/03 03:25:36;;;;;;;11.73;7.77;;;;;;;;;;5077359;28;20207;-54
2023/10/03 03:28:13;;;;;;;15.93;8.83;;;;;;;;;;5093854;28;20168;-52
2023/10/03 03:30:45;;;;;;;12.40;7.90;;;;;;;;;;5077182;28;20739;-54
2023/10/03 03:33:19;;;;;;;14.30;8.30;;;;;;;;;;5094673;28;20224;-54
2023/10/03 03:38:49;;;;;;;13.03;7.93;;;;;;;;;;5094694;28;20221;-53
2023/10/03 03:41:15;;;;;;;13.60;7.43;;;;;;;;;;5077230;28;20164;-48
2023/10/03 03:43:42;;;;;;;15.57;8.87;;;;;;;;;;5077234;28;20183;-52
2023/10/03 03:46:09;;;;;;;13.50;8.10;;;;;;;;;;5094283;28;20176;-51
2023/10/03 03:48:36;;;;;;;13.17;8.20;;;;;;;;;;5076930;28;20207;-50
2023/10/03 03:51:02;;;;;;;14.20;8.10;;;;;;;;;;5082170;28;20168;-49
2023/10/03 03:53:29;;;;;;;15.53;8.40;;;;;;;;;;5081280;28;20203;-49
2023/10/03 03:55:55;;;;;;;14.50;8.30;;;;;;;;;;5097552;28;20556;-48
2023/10/03 03:58:22;;;;;;;13.43;8.30;;;;;;;;;;5079637;28;20333;-51
2023/10/03 04:00:50;;;;;;;12.43;7.20;;;;;;;;;;5098130;28;20363;-51
2023/10/03 04:03:16;;;;;;;17.53;8.90;;;;;;;;;;5098130;28;20221;-49
2023/10/03 04:05:42;;;;;;;13.03;8.10;;;;;;;;;;5080750;28;20179;-48
2023/10/03 04:08:09;;;;;;;13.40;7.23;;;;;;;;;;5080178;28;20176;-49
2023/10/03 04:10:37;;;;;;;15.00;8.53;;;;;;;;;;5097939;28;20200;-51
2023/10/03 04:13:10;;;;;;;15.30;8.63;;;;;;;;;;5097419;28;20506;-47
2023/10/03 04:15:39;;;;;;;14.70;8.20;;;;;;;;;;5080377;28;20176;-50
2023/10/03 04:18:05;;;;;;;12.33;7.97;;;;;;;;;;5078451;28;20168;-51
2023/10/03 04:20:31;;;;;;;12.43;7.70;;;;;;;;;;5079536;28;20183;-49
2023/10/03 04:23:00;;;;;;;13.50;7.73;;;;;;;;;;5096692;28;20559;-48
2023/10/03 04:25:26;;;;;;;14.13;8.57;;;;;;;;;;5078945;28;20554;-47
2023/10/03 04:27:53;;;;;;;15.50;7.90;;;;;;;;;;5079196;28;20178;-49
2023/10/03 04:30:23;;;;;;;15.33;7.83;;;;;;;;;;5079234;28;20267;-49
2023/10/03 04:32:49;;;;;;;14.10;7.80;;;;;;;;;;5097209;28;20253;-49
2023/10/03 04:35:18;;;;;;;13.70;8.00;;;;;;;;;;5079127;28;20164;-50
2023/10/03 04:37:44;;;;;;;11.73;7.43;;;;;;;;;;5097792;28;20160;-54
2023/10/03 04:40:13;;;;;;;13.20;8.20;;;;;;;;;;5081007;28;20225;-48
2023/10/03 04:42:45;;;;;;;12.00;7.37;;;;;;;;;;5098812;28;20156;-47
2023/10/03 04:45:14;;;;;;;13.27;7.40;;;;;;;;;;5098561;28;20262;-51
2023/10/03 04:47:41;;;;;;;12.77;7.33;;;;;;;;;;5079004;28;20183;-51
2023/10/03 04:50:07;;;;;;;13.00;7.60;;;;;;;;;;5079587;28;20547;-54
2023/10/03 04:52:34;;;;;;;15.23;7.47;;;;;;;;;;5079658;28;20196;-53
2023/10/03 04:55:00;;;;;;;12.77;7.70;;;;;;;;;;5096904;28;20218;-49
2023/10/03 04:57:27;;;;;;;12.77;8.10;;;;;;;;;;5078358;28;20168;-48
2023/10/03 04:59:53;;;;;;;18.47;8.63;;;;;;;;;;5079894;28;20269;-49
2023/10/03 05:02:20;;;;;;;13.00;7.70;;;;;;;;;;5079403;28;20237;-49
2023/10/03 05:04:46;;;;;;;12.90;8.00;;;;;;;;;;5078517;28;20263;-48
2023/10/03 05:07:12;;;;;;;14.60;8.23;;;;;;;;;;5079185;28;20172;-53
2023/10/03 05:09:38;;;;;;;16.83;8.20;;;;;;;;;;5079985;28;20225;-49
2023/10/03 05:12:05;;;;;;;15.53;8.17;;;;;;;;;;5079388;28;20555;-53
2023/10/03 05:14:31;;;;;;;14.87;7.10;;;;;;;;;;5096094;28;20227;-53
2023/10/03 05:17:00;;;;;;;15.50;8.40;;;;;;;;;;5096497;28;20184;-51
2023/10/03 05:19:26;;;;;;;14.50;7.47;;;;;;;;;;5078985;28;20176;-51
2023/10/03 05:21:52;;;;;;;12.57;7.03;;;;;;;;;;5078732;28;20175;-49
2023/10/03 05:24:19;;;;;;;16.73;8.23;;;;;;;;;;5078844;28;20176;-49
2023/10/03 05:26:45;;;;;;;11.53;7.07;;;;;;;;;;5078415;28;20183;-52
2023/10/03 05:29:11;;;;;;;14.67;8.47;;;;;;;;;;5078770;28;20188;-50
2023/10/03 05:31:40;;;;;;;16.40;8.20;;;;;;;;;;5094732;28;20172;-50
2023/10/03 05:34:07;;;;;;;16.43;9.03;;;;;;;;;;5074477;28;20260;-50
2023/10/03 05:36:33;;;;;;;11.73;7.23;;;;;;;;;;5076145;28;20204;-54
2023/10/03 05:39:00;;;;;;;15.67;8.63;;;;;;;;;;5075561;28;20208;-50
2023/10/03 05:41:29;;;;;;;11.57;7.20;;;;;;;;;;5075836;28;20560;-48
2023/10/03 05:43:55;;;;;;;15.47;8.17;;;;;;;;;;5075986;28;20180;-49
2023/10/03 05:46:21;;;;;;;17.80;8.93;;;;;;;;;;5076296;28;20451;-51
2023/10/03 05:48:47;;;;;;;14.97;7.70;;;;;;;;;;5075682;28;20200;-49
2023/10/03 05:51:13;;;;;;;14.27;8.10;;;;;;;;;;5076047;28;20183;-50
2023/10/03 05:53:45;;;;;;;14.70;8.30;;;;;;;;;;5075765;28;20565;-50
2023/10/03 05:56:11;;;;;;;17.20;8.97;;;;;;;;;;5074443;28;20164;-48
2023/10/03 05:58:37;;;;;;;14.03;7.83;;;;;;;;;;5073702;28;20169;-50
2023/10/03 06:01:04;;;;;;;15.00;8.00;;;;;;;;;;5075333;28;20175;-52
2023/10/03 06:03:31;;;;;;;14.27;7.80;;;;;;;;;;5074485;28;20195;-49
2023/10/03 06:05:59;;;;;;;15.77;9.23;;;;;;;;;;5075047;28;20449;-51
2023/10/03 06:08:25;;;;;;;13.97;7.97;;;;;;;;;;5074859;28;20196;-50
2023/10/03 06:10:51;;;;;;;15.63;7.77;;;;;;;;;;5076107;28;20266;-48
2023/10/03 06:13:17;;;;;;;14.83;7.83;;;;;;;;;;5074045;28;20192;-51
2023/10/03 06:15:43;;;;;;;16.97;8.03;;;;;;;;;;5074588;28;20173;-49
2023/10/03 06:18:09;;;;;;;12.40;8.23;;;;;;;;;;5074203;28;20173;-49
2023/10/03 06:20:36;;;;;;;15.63;8.20;;;;;;;;;;5075932;28;20256;-50
2023/10/03 06:23:04;;;;;;;13.13;8.17;;;;;;;;;;5074207;28;20183;-53
2023/10/03 06:25:30;;;;;;;15.73;8.27;;;;;;;;;;5074680;28;20577;-53
2023/10/03 06:27:56;;;;;;;14.93;8.07;;;;;;;;;;5074480;28;20655;-48
2023/10/03 06:30:23;;;;;;;14.67;7.93;;;;;;;;;;5074387;28;20192;-49
2023/10/03 06:32:50;;;;;;;14.70;8.23;;;;;;;;;;5074396;28;20211;-53
2023/10/03 06:35:18;;;;;;;13.70;8.80;;;;;;;;;;5076917;28;20183;-50
2023/10/03 06:37:44;;;;;;;17.37;8.97;;;;;;;;;;5076500;28;20172;-48
2023/10/03 06:40:13;;;;;;;15.13;8.10;;;;;;;;;;5077922;28;20267;-53
2023/10/03 06:42:40;;;;;;;16.73;9.00;;;;;;;;;;5095260;28;20192;-48
2023/10/03 06:45:09;;;;;;;15.00;8.80;;;;;;;;;;5076923;28;20218;-51
2023/10/03 06:47:36;;;;;;;16.50;9.03;;;;;;;;;;5075879;28;20559;-49
2023/10/03 06:50:05;;;;;;;15.43;9.07;;;;;;;;;;5075131;28;20255;-52
2023/10/03 06:52:32;;;;;;;19.40;9.77;;;;;;;;;;5070980;28;20319;-47
2023/10/03 06:54:58;;;;;;;19.63;10.00;;;;;;;;;;5071055;28;20270;-48
2023/10/03 06:57:24;;;;;;;20.83;8.60;;;;;;;;;;5070732;28;20190;-51
2023/10/03 06:59:50;;;;;;;16.30;9.27;;;;;;;;;;5069420;28;20424;-48
2023/10/03 07:02:18;;;;;;;17.37;9.43;;;;;;;;;;5068618;28;20248;-52
2023/10/03 07:04:44;;;;;;;18.23;9.20;;;;;;;;;;5070109;28;20447;-48
2023/10/03 07:07:11;;;;;;;17.53;9.20;;;;;;;;;;5069293;28;20612;-48
2023/10/03 07:09:40;;;;;;;16.90;9.27;;;;;;;;;;5069620;28;20316;-51
2023/10/03 07:12:10;;;;;;;16.20;8.83;;;;;;;;;;5069665;28;20168;-49
2023/10/03 07:14:36;;;;;;;16.33;9.30;;;;;;;;;;5088219;28;20214;-50
2023/10/03 07:17:03;;;;;;;18.07;9.27;;;;;;;;;;5089526;28;20481;-51
2023/10/03 07:19:30;;;;;;;19.73;9.63;;;;;;;;;;5075665;28;20176;-53
2023/10/03 07:21:57;;;;;;;15.90;8.87;;;;;;;;;;5076639;28;20178;-49
2023/10/03 07:24:25;;;;;;;15.80;8.83;;;;;;;;;;5093450;28;20171;-52
2023/10/03 07:26:52;;;;;;;17.63;8.87;;;;;;;;;;5080070;28;20176;-52
2023/10/03 07:29:20;;;;;;;15.73;8.80;;;;;;;;;;5080304;28;20275;-52
2023/10/03 07:31:47;;;;;;;17.03;9.80;;;;;;;;;;5079322;28;20324;-50
2023/10/03 07:34:17;;;;;;;19.00;9.80;;;;;;;;;;5079559;28;20231;-54
2023/10/03 07:36:43;;;;;;;18.37;10.03;;;;;;;;;;5078773;28;20168;-52
2023/10/03 07:39:10;;;;;;;15.53;8.40;;;;;;;;;;5080364;28;20168;-51
2023/10/03 07:41:36;;;;;;;19.53;10.00;;;;;;;;;;5077971;28;20164;-50
2023/10/03 07:44:04;;;;;;;18.87;9.50;;;;;;;;;;5097110;28;20459;-50
2023/10/03 07:46:30;;;;;;;17.17;9.57;;;;;;;;;;5079749;28;20184;-50
2023/10/03 07:48:56;;;;;;;18.00;9.80;;;;;;;;;;5080354;28;20175;-49
2023/10/03 07:51:29;;;;;;;19.87;9.77;;;;;;;;;;5078758;28;20220;-50
2023/10/03 07:53:55;;;;;;;18.73;9.00;;;;;;;;;;5097003;28;20590;-54
2023/10/03 07:56:25;;;;;;;18.03;9.73;;;;;;;;;;5096639;28;20160;-47
2023/10/03 07:58:55;;;;;;;18.73;10.03;;;;;;;;;;5077367;28;20191;-50
2023/10/03 08:01:25;;;;;;;22.90;10.27;;;;;;;;;;5077839;28;20179;-49
2023/10/03 08:03:53;;;;;;;20.50;9.50;;;;;;;;;;5078149;28;20176;-50
2023/10/03 08:06:23;;;;;;;17.23;10.03;;;;;;;;;;5077368;28;20259;-49
2023/10/03 08:08:49;;;;;;;18.50;9.50;;;;;;;;;;5077717;28;20211;-47
2023/10/03 08:11:16;;;;;;;20.37;9.70;;;;;;;;;;5077549;28;20237;-49
2023/10/03 08:13:42;;;;;;;18.57;10.40;;;;;;;;;;5071920;28;20204;-51
2023/10/03 08:16:08;;;;;;;17.63;9.43;;;;;;;;;;5091664;28;20384;-50
2023/10/03 08:18:36;;;;;;;17.67;9.77;;;;;;;;;;5076280;28;20272;-48
2023/10/03 08:21:03;;;;;;;20.87;10.60;;;;;;;;;;5078686;28;20184;-50
2023/10/03 08:23:33;;;;;;;20.03;10.33;;;;;;;;;;5077606;28;20207;-48
2023/10/03 08:26:01;;;;;;;18.17;10.00;;;;;;;;;;5095521;28;20720;-49
2023/10/03 08:28:28;;;;;;;17.30;10.40;;;;;;;;;;5078258;28;20182;-49
2023/10/03 08:30:56;;;;;;;17.27;9.40;;;;;;;;;;5095634;28;20389;-48
2023/10/03 08:33:22;;;;;;;21.70;9.43;;;;;;;;;;5077619;28;20228;-47
2023/10/03 08:35:49;;;;;;;18.43;9.10;;;;;;;;;;5093866;28;20176;-48
2023/10/03 08:38:15;;;;;;;15.97;8.63;;;;;;;;;;5077555;28;20198;-48
2023/10/03 08:40:45;;;;;;;17.67;9.00;;;;;;;;;;5077510;28;20208;-48
2023/10/03 08:43:12;;;;;;;17.67;9.47;;;;;;;;;;5077300;28;20207;-49
2023/10/03 08:45:52;;;;;;;18.57;9.27;;;;;;;;;;5076845;28;20183;-47
2023/10/03 08:48:24;;;;;;;17.77;9.07;;;;;;;;;;5095079;28;20172;-48
2023/10/03 08:50:53;;;;;;;15.70;9.07;;;;;;;;;;5093556;28;20218;-52
2023/10/03 08:53:27;;;;;;;17.80;8.73;;;;;;;;;;5077869;28;20199;-47
2023/10/03 08:56:01;;;;;;;18.20;8.67;;;;;;;;;;5077081;28;20217;-47
2023/10/03 08:58:28;;;;;;;16.40;8.43;;;;;;;;;;5076121;28;20504;-49
2023/10/03 09:00:58;;;;;;;15.87;9.00;;;;;;;;;;5078370;28;20223;-47
2023/10/03 09:03:29;;;;;;;14.83;8.40;;;;;;;;;;5095421;28;20164;-49
2023/10/03 09:05:58;;;;;;;16.60;8.40;;;;;;;;;;5094102;28;20172;-48
2023/10/03 09:08:27;;;;;;;17.67;7.27;;;;;;;;;;5074907;28;20182;-52
2023/10/03 09:10:55;;;;;;;16.30;6.80;;;;;;;;;;5073977;28;20708;-48
2023/10/03 09:13:24;;;;;;;14.10;7.20;;;;;;;;;;5076230;28;20245;-51
2023/10/03 09:16:02;;;;;;;15.73;6.50;;;;;;;;;;5075915;28;20251;-50
2023/10/03 09:18:28;;;;;;;13.73;7.43;;;;;;;;;;5075174;28;20653;-50
2023/10/03 09:20:59;;;;;;;13.43;6.63;;;;;;;;;;5093125;28;20168;-50
2023/10/03 09:23:27;;;;;;;12.67;7.43;;;;;;;;;;5076724;28;20241;-47
2023/10/03 09:25:57;;;;;;;13.03;6.10;;;;;;;;;;5076161;28;20168;-47
2023/10/03 09:28:35;;;;;;;11.70;6.40;;;;;;;;;;5076467;28;20171;-52
2023/10/03 09:31:02;;;;;;;13.87;6.07;;;;;;;;;;5074671;28;20642;-49
2023/10/03 09:33:28;;;;;;;13.30;6.23;;;;;;;;;;5071918;28;20239;-46
2023/10/03 09:36:00;;;;;;;15.93;7.87;;;;;;;;;;5071675;28;20176;-48
2023/10/03 09:38:44;;;;;;;16.27;8.10;;;;;;;;;;5073167;28;20173;-53
2023/10/03 09:41:17;;;;;;;13.03;6.77;;;;;;;;;;5071876;28;20200;-52
2023/10/03 09:43:49;;;;;;;13.73;7.13;;;;;;;;;;5072171;28;20172;-47
2023/10/03 09:46:23;;;;;;;17.10;7.90;;;;;;;;;;5065284;28;20181;-50
2023/10/03 09:48:53;;;;;;;15.30;7.63;;;;;;;;;;5064176;28;20175;-49
2023/10/03 09:51:46;;;;;;;17.13;8.13;;;;;;;;;;5064490;28;20223;-48
2023/10/03 09:54:23;;;;;;;13.60;7.27;;;;;;;;;;5064430;28;20212;-51
2023/10/03 09:56:50;;;;;;;12.17;6.73;;;;;;;;;;5061833;28;20200;-48
2023/10/03 09:59:19;;;;;;;16.57;7.20;;;;;;;;;;5061532;28;20515;-49
2023/10/03 10:01:46;;;;;;;12.90;6.80;;;;;;;;;;5062253;28;20192;-52
2023/10/03 10:04:13;;;;;;;13.07;6.20;;;;;;;;;;5062534;28;20203;-51
2023/10/03 10:06:50;;;;;;;14.97;6.67;;;;;;;;;;5063592;28;20323;-51
2023/10/03 10:09:27;;;;;;;13.07;6.57;;;;;;;;;;5065427;28;20180;-52
2023/10/03 10:12:12;;;;;;;16.63;7.00;;;;;;;;;;5066806;28;20179;-50
2023/10/03 10:15:00;;;;;;;18.30;7.73;;;;;;;;;;5067477;28;20715;-49
2023/10/03 10:17:41;;;;;;;9.13;5.60;;;;;;;;;;5067709;28;20246;-53
2023/10/03 10:20:11;;;;;;;14.40;6.37;;;;;;;;;;5073859;28;20255;-48
2023/10/03 10:22:55;;;;;;;14.10;6.23;;;;;;;;;;5073189;28;20556;-48
2023/10/03 10:25:30;;;;;;;11.87;6.33;;;;;;;;;;5073125;28;20180;-51
2023/10/03 10:28:07;;;;;;;12.70;6.07;;;;;;;;;;5072636;28;20254;-49
2023/10/03 10:30:34;;;;;;;11.30;6.20;;;;;;;;;;5072715;28;20650;-47
2023/10/03 10:33:18;;;;;;;10.40;5.90;;;;;;;;;;5073887;28;20286;-47
2023/10/03 10:35:50;;;;;;;11.27;5.77;;;;;;;;;;5073721;28;20278;-50
2023/10/03 10:38:16;;;;;;;10.50;5.77;;;;;;;;;;5070536;28;20164;-47
2023/10/03 10:41:02;;;;;;;9.33;5.60;;;;;;;;;;5072933;28;20183;-51
2023/10/03 10:43:33;;;;;;;11.30;5.07;;;;;;;;;;5062607;28;20279;-49
2023/10/03 10:46:18;;;;;;;10.83;5.70;;;;;;;;;;5071606;28;20172;-50
2023/10/03 10:48:46;;;;;;;10.60;5.07;;;;;;;;;;5070793;28;20176;-50
2023/10/03 10:51:13;;;;;;;8.17;4.80;;;;;;;;;;5071830;28;20171;-47
2023/10/03 10:53:46;;;;;;;8.23;4.80;;;;;;;;;;5089045;28;20214;-47
2023/10/03 10:56:14;;;;;;;11.93;5.40;;;20.10;99.90;;;;;;5056836;28;20168;-49
2023/10/03 10:59:04;;;;;;;5.90;4.00;;;20.00;99.90;;;;;;5075056;28;20172;-51
2023/10/03 11:01:36;;;;;;;10.03;5.60;;;19.70;99.90;;;;;;5075150;28;20176;-47
2023/10/03 11:04:03;;;;;;;9.90;5.13;;;19.30;99.90;;;;;;5059295;28;20186;-46
2023/10/03 11:06:30;;;;;;;10.40;5.70;;;19.10;99.90;;;;;;5076356;28;20176;-48
2023/10/03 11:08:56;;;;;;;15.27;5.53;;;18.90;99.90;;;;;;5075731;28;20241;-47
2023/10/03 11:11:38;;;;;;;11.90;5.67;;;18.70;99.90;;;;;;5074893;28;20187;-48
2023/10/03 11:14:06;;;;;;;7.07;4.60;;;18.60;99.90;;;;;;5074166;28;20210;-51
2023/10/03 11:16:31;;;;;;;12.97;6.10;;;18.60;99.90;;;;;;5092306;28;20250;-49
2023/10/03 11:18:59;;;;;;;10.97;4.90;;;18.50;99.90;;;;;;5091782;28;20251;-47
2023/10/03 11:21:25;;;;;;;8.47;4.93;;;18.40;99.90;;;;;;5056577;28;20203;-49
2023/10/03 11:24:24;;;;;;;10.97;5.43;;;18.30;99.90;;;;;;5073979;28;20207;-48
2023/10/03 11:26:59;;;;;;;11.73;5.90;;;18.30;99.90;;;;;;5045688;28;20192;-48
2023/10/03 11:29:48;;;;;;;6.87;3.83;;;18.30;99.90;;;;;;5090693;28;20172;-46
2023/10/03 11:32:32;;;;;;;5.80;4.13;;;18.30;99.90;;;;;;5059486;28;20391;-48
2023/10/03 11:35:17;;;;;;;6.87;4.17;;;18.20;99.90;;;;;;5074669;28;20215;-50
2023/10/03 11:37:44;;;;;;;10.70;3.90;;;18.20;99.90;;;;;;5058786;28;20750;-48
2023/10/03 11:40:15;;;;;;;9.13;2.80;;;18.20;99.90;;;;;;5072035;28;20519;-46
2023/10/03 11:42:55;;;;;;;9.73;2.80;;;18.20;99.90;;;;;;5073544;28;20195;-47
2023/10/03 11:45:23;;;;;;;5.37;2.80;;;18.20;99.90;;;;;;5090781;28;20157;-46
2023/10/03 11:48:07;;;;;;;6.57;2.30;;;18.20;99.90;;;;;;5091283;28;20160;-51
2023/10/03 11:50:36;;;;;;;7.40;2.17;;;18.20;99.90;;;;;;5072983;28;20259;-53
2023/10/03 11:53:05;;;;;;;9.83;2.53;;;18.10;99.90;;;;;;5072520;28;20212;-50
2023/10/03 11:55:36;;;;;;;9.80;3.00;;;18.10;99.90;;;;;;5055741;28;20168;-48
2023/10/03 11:58:05;;;;;;;9.70;2.07;;;18.00;99.90;;;;;;5072013;28;20658;-48
2023/10/03 12:00:31;;;;;;;3.07;1.23;;;18.00;99.90;;;;;;5055927;28;20180;-46
2023/10/03 12:02:57;;;;;;;10.27;2.00;;;17.90;99.90;;;;;;5070235;28;20254;-48
2023/10/03 12:05:23;;;;;;;6.27;1.97;;;17.90;99.90;;;;;;5071073;28;20178;-47
2023/10/03 12:07:51;;;;;;;8.07;1.97;;;17.90;99.90;;;;;;5054969;28;20183;-50
2023/10/03 12:10:17;;;;;;;5.30;1.20;;;17.90;99.90;;;;;;5089602;28;20160;-46
2023/10/03 12:12:43;;;;;;;8.30;1.83;;;17.90;99.90;;;;;;5075978;28;20180;-49
2023/10/03 12:15:14;;;;;;;8.90;1.10;;;18.00;99.90;;;;;;5092885;28;20794;-50
2023/10/03 12:17:46;;;;;;;5.07;1.20;;;18.00;99.90;;;;;;5075496;28;20181;-49
2023/10/03 12:20:13;;;;;;;7.03;1.63;;;18.00;99.90;;;;;;5075767;28;20166;-46
2023/10/03 12:22:44;;;;;;;2.27;0.60;;;17.90;99.90;;;;;;5077957;28;20168;-49
2023/10/03 12:25:12;;;;;;;3.80;0.80;;;17.90;99.90;;;;;;5077737;28;20198;-49
2023/10/03 12:27:41;;;;;;;3.87;0.93;;;17.90;99.90;;;;;;5077361;28;20214;-47
2023/10/03 12:30:10;;;;;;;2.97;0.80;;;17.80;99.90;;;;;;5094878;28;20264;-49
2023/10/03 12:32:38;;;;;;;2.67;0.97;;;17.80;99.90;;;;;;5074981;28;20170;-49
2023/10/03 12:35:08;;;;;;;3.90;0.70;;;17.80;99.90;;;;;;5071865;28;20239;-46
2023/10/03 12:37:36;;;;;;;3.07;0.70;;;17.60;99.90;;;;;;5073638;28;20172;-48
2023/10/03 12:40:16;;;;;;;2.70;0.50;;;17.60;99.90;;;;;;5073361;28;20164;-47
2023/10/03 12:42:47;;;;;;;1.77;0.57;;;17.60;99.90;;;;;;5074462;28;20176;-48
2023/10/03 12:45:15;;;;;;;1.60;0.67;;;17.50;99.90;;;;;;5073202;28;20578;-50
2023/10/03 12:47:48;;;;;;;4.97;1.00;;;17.40;99.90;;;;;;5072190;28;20200;-50
2023/10/03 12:50:21;;;;;;;4.50;1.20;;;17.50;99.90;;;;;;5056225;28;20263;-49
2023/10/03 12:52:51;;;;;;;4.00;1.23;;;17.50;99.90;;;;;;5071811;28;20320;-52
2023/10/03 12:55:20;;;;;;;3.53;0.90;;;17.50;99.90;;;;;;5073397;28;20172;-49
2023/10/03 12:57:47;;;;;;;5.10;0.80;;;17.40;99.90;;;;;;5072590;28;20788;-48
2023/10/03 13:00:19;;;;;;;4.17;1.50;;;17.40;99.90;;;;;;5073573;28;20188;-49
2023/10/03 13:02:49;;;;;;;8.57;1.33;;;17.50;99.90;;;;;;5073877;28;20227;-47
2023/10/03 13:05:18;;;;;;;2.90;1.73;;;17.50;99.90;;;;;;5073715;28;20169;-47
2023/10/03 13:07:47;;;;;;;2.73;1.23;;;17.50;99.90;;;;;;5055342;28;20238;-50
2023/10/03 13:10:25;;;;;;;3.50;1.10;;;17.60;99.90;;;;;;5072181;28;20532;-47
2023/10/03 13:12:54;;;;;;;6.53;1.33;;;17.60;99.90;;;;;;5072215;28;20373;-48
2023/10/03 13:15:21;;;;;;;4.13;1.17;;;17.70;99.90;;;;;;5073350;28;20537;-47
2023/10/03 13:17:49;;;;;;;7.03;1.40;;;17.70;99.90;;;;;;5073474;28;20175;-49
2023/10/03 13:20:18;;;;;;;4.17;1.73;;;17.80;99.90;;;;;;5073423;28;20196;-49
2023/10/03 13:22:45;;;;;;;5.57;1.27;;;17.80;99.90;;;;;;5071961;28;20200;-52
2023/10/03 13:25:12;;;;;;;9.23;1.50;;;17.90;99.90;;;;;;5073543;28;20157;-47
2023/10/03 13:27:39;;;;;;;7.30;2.00;;;17.90;99.90;;;;;;5073538;28;20161;-49
2023/10/03 13:30:17;;;;;;;4.63;1.23;;;17.90;99.90;;;;;;5073505;28;20180;-49
2023/10/03 13:32:43;;;;;;;2.93;1.27;;;17.90;99.90;;;;;;5073365;28;20169;-53
2023/10/03 13:35:13;;;;;;;6.37;1.57;;;17.90;99.90;;;;;;5072789;28;20273;-47
2023/10/03 13:37:39;;;;;;;6.13;1.60;;;17.80;99.90;;;;;;5074401;28;20448;-47
2023/10/03 13:40:06;;;;;;;4.17;1.07;;;17.80;99.90;;;;;;5071597;28;20268;-52
2023/10/03 13:42:32;;;;;;;5.53;1.63;;;17.80;99.90;;;;;;5072366;28;20165;-47
2023/10/03 13:44:57;;;;;;;5.80;1.30;;;17.70;99.90;;;;;;5071772;28;20173;-49
2023/10/03 13:47:24;;;;;;;3.30;1.30;;;17.80;99.90;;;;;;5071448;28;20465;-49
2023/10/03 13:49:49;;;;;;;5.80;1.23;;;17.80;99.90;;;;;;5071296;28;20714;-48
2023/10/03 13:52:16;;;;;;;3.23;1.40;;;17.70;99.90;;;;;;5072664;28;20169;-48
2023/10/03 13:54:44;;;;;;;3.83;1.10;;;17.70;99.90;;;;;;5073604;28;20224;-50
2023/10/03 13:57:11;;;;;;;7.03;1.80;;;17.70;99.90;;;;;;5072070;28;20259;-52
2023/10/03 13:59:38;;;;;;;3.93;1.40;;;17.60;99.90;;;;;;5071400;28;20334;-51
2023/10/03 14:02:03;;;;;;;2.23;0.63;;;17.40;99.90;;;;;;5070700;28;20169;-49
2023/10/03 14:04:31;;;;;;;7.27;1.20;;;17.40;99.90;;;;;;5071156;28;20195;-47
2023/10/03 14:06:58;;;;;;;3.00;1.20;;;17.30;99.90;;;;;;5071012;28;20179;-47
2023/10/03 14:09:27;;;;;;;4.60;1.47;;;17.20;99.90;;;;;;5069901;28;20183;-48
2023/10/03 14:11:57;;;;;;;7.33;1.50;;;17.20;99.90;;;;;;5067467;28;20480;-47
2023/10/03 14:14:26;;;;;;;5.37;1.50;;;17.20;99.90;;;;;;5065021;28;20208;-48
2023/10/03 14:16:56;;;;;;;7.73;1.30;;;17.10;99.90;;;;;;5065641;28;20172;-49
2023/10/03 14:19:27;;;;;;;3.93;1.57;;;17.10;99.90;;;;;;5071177;28;20168;-48